Time;durP1;ratioP1;P1;durP2;ratioP2;P2;SDS_P1;SDS_P2;PMS_P1;PMS_P2;Temp;Humidity;BMP_temperature;BMP_pressure;BME280_temperature;BME280_humidity;BME280_pressure;Samples;Min_cycle;Max_cycle;Signal;HPM_P1;HPM_P2
2023/06/21 00:01:57;;;;;;;1.98;1.88;;;22.50;99.90;;;;;;5059303;28;20251;-61
2023/06/21 00:04:24;;;;;;;2.17;2.08;;;22.50;99.90;;;;;;5060723;28;20637;-63
2023/06/21 00:06:51;;;;;;;1.90;1.80;;;22.60;99.90;;;;;;5056629;28;20247;-61
2023/06/21 00:09:19;;;;;;;2.00;1.90;;;22.60;99.90;;;;;;5055832;28;20232;-61
2023/06/21 00:11:47;;;;;;;1.70;1.60;;;22.70;99.90;;;;;;5056991;28;20216;-63
2023/06/21 00:14:14;;;;;;;1.95;1.85;;;22.80;99.90;;;;;;5057027;28;20346;-64
2023/06/21 00:16:41;;;;;;;1.75;1.65;;;22.90;99.90;;;;;;5054639;28;20298;-62
2023/06/21 00:19:08;;;;;;;1.90;1.80;;;22.90;99.90;;;;;;5054891;28;20713;-62
2023/06/21 00:21:34;;;;;;;1.80;1.70;;;22.90;99.90;;;;;;5055411;28;20214;-64
2023/06/21 00:24:02;;;;;;;2.00;1.90;;;22.80;99.90;;;;;;5055164;28;20285;-63
2023/06/21 00:26:29;;;;;;;1.90;1.80;;;22.70;99.90;;;;;;5055776;28;20215;-63
2023/06/21 00:28:58;;;;;;;1.90;1.80;;;22.60;99.90;;;;;;5055391;28;20211;-64
2023/06/21 00:31:24;;;;;;;1.90;1.80;;;22.60;99.90;;;;;;5055288;28;20285;-63
2023/06/21 00:33:51;;;;;;;1.80;1.70;;;22.60;99.90;;;;;;5055534;28;20204;-63
2023/06/21 00:36:18;;;;;;;1.73;1.63;;;22.60;99.90;;;;;;5055349;28;20299;-63
2023/06/21 00:38:46;;;;;;;2.55;2.45;;;22.60;99.90;;;;;;5059899;28;20223;-63
2023/06/21 00:41:13;;;;;;;1.90;1.80;;;22.50;99.90;;;;;;5063208;28;20211;-62
2023/06/21 00:43:40;;;;;;;1.80;1.70;;;22.50;99.90;;;;;;5056294;28;20319;-63
2023/06/21 00:46:08;;;;;;;1.67;1.67;;;22.40;99.90;;;;;;5067235;28;20294;-62
2023/06/21 00:48:35;;;;;;;1.90;1.80;;;22.40;99.90;;;;;;5056716;28;20210;-63
2023/06/21 00:51:02;;;;;;;2.00;1.80;;;22.40;99.90;;;;;;5054174;28;20220;-64
2023/06/21 00:53:31;;;;;;;4.20;4.03;;;22.40;99.90;;;;;;5054466;28;20745;-63
2023/06/21 00:56:00;;;;;;;1.92;1.83;;;22.30;99.90;;;;;;5054058;28;20215;-61
2023/06/21 00:58:28;;;;;;;1.90;1.80;;;22.30;99.90;;;;;;5054552;28;20261;-64
2023/06/21 01:00:55;;;;;;;1.70;1.70;;;22.20;99.90;;;;;;5079625;22;20314;-61
2023/06/21 01:03:23;;;;;;;2.00;1.90;;;22.20;99.90;;;;;;5075547;28;20309;-61
2023/06/21 01:06:13;;;;;;;1.85;1.75;;;22.20;99.90;;;;;;5072723;28;20321;-61
2023/06/21 01:08:48;;;;;;;1.60;1.50;;;22.30;99.90;;;;;;5071870;28;20210;-63
2023/06/21 01:11:23;;;;;;;1.85;1.75;;;22.20;99.90;;;;;;5052735;28;20341;-61
2023/06/21 01:14:04;;;;;;;1.73;1.63;;;22.30;99.90;;;;;;5054242;28;20635;-62
2023/06/21 01:16:38;;;;;;;1.67;1.58;;;22.30;99.90;;;;;;5054287;28;20207;-64
2023/06/21 01:19:13;;;;;;;1.77;1.70;;;22.30;99.90;;;;;;5052601;28;20298;-65
2023/06/21 01:21:41;;;;;;;1.83;1.73;;;22.20;99.90;;;;;;5052763;28;20208;-61
2023/06/21 01:24:25;;;;;;;1.85;1.75;;;22.20;99.90;;;;;;5063388;28;20667;-63
2023/06/21 01:27:37;;;;;;;1.80;1.70;;;22.20;99.90;;;;;;5072641;28;20656;-61
2023/06/21 01:30:08;;;;;;;1.92;1.83;;;22.10;99.90;;;;;;5043899;28;20223;-63
2023/06/21 01:32:37;;;;;;;1.65;1.58;;;22.00;99.90;;;;;;5073198;28;20187;-63
2023/06/21 01:35:05;;;;;;;1.92;1.83;;;21.90;99.90;;;;;;5072667;28;20209;-63
2023/06/21 01:37:32;;;;;;;2.28;2.15;;;21.90;99.90;;;;;;5070958;28;20232;-62
2023/06/21 01:40:00;;;;;;;1.75;1.67;;;21.90;99.90;;;;;;5071875;28;20230;-63
2023/06/21 01:42:27;;;;;;;2.03;1.92;;;21.80;99.90;;;;;;5072038;28;20223;-62
2023/06/21 01:44:54;;;;;;;1.92;1.83;;;21.70;99.90;;;;;;5072231;28;20199;-61
2023/06/21 01:47:22;;;;;;;7.45;6.35;;;21.80;99.90;;;;;;5072108;28;20203;-61
2023/06/21 01:49:49;;;;;;;1.90;1.80;;;21.70;99.90;;;;;;5072023;28;20322;-62
2023/06/21 01:52:16;;;;;;;2.30;2.20;;;21.70;99.90;;;;;;5072111;28;20210;-61
2023/06/21 01:54:43;;;;;;;1.90;1.80;;;21.70;99.90;;;;;;5071954;28;20213;-62
2023/06/21 01:57:11;;;;;;;1.70;1.60;;;21.70;99.90;;;;;;5072159;28;20235;-61
2023/06/21 01:59:38;;;;;;;1.63;1.63;;;21.60;99.90;;;;;;5072507;28;20758;-62
2023/06/21 02:02:08;;;;;;;2.35;2.20;;;21.60;99.90;;;;;;5072159;28;20580;-61
2023/06/21 02:04:38;;;;;;;2.08;1.98;;;21.60;99.90;;;;;;5071815;28;20310;-63
2023/06/21 02:07:07;;;;;;;2.50;2.40;;;21.60;99.90;;;;;;5073235;28;20280;-61
2023/06/21 02:09:34;;;;;;;2.35;2.25;;;21.50;99.90;;;;;;5071725;28;20231;-63
2023/06/21 02:12:02;;;;;;;1.73;1.63;;;21.30;99.90;;;;;;5072014;28;20310;-62
2023/06/21 02:14:29;;;;;;;1.90;1.80;;;21.20;99.90;;;;;;5072104;28;20207;-63
2023/06/21 02:16:56;;;;;;;1.90;1.80;;;21.20;99.90;;;;;;5081024;28;20203;-61
2023/06/21 02:19:24;;;;;;;1.92;1.83;;;21.20;99.90;;;;;;5082047;28;20241;-63
2023/06/21 02:21:53;;;;;;;1.92;1.83;;;21.20;99.90;;;;;;5076114;28;20639;-61
2023/06/21 02:24:19;;;;;;;1.90;1.80;;;21.30;99.90;;;;;;5071697;28;20895;-63
2023/06/21 02:26:46;;;;;;;1.80;1.70;;;21.30;99.90;;;;;;5071405;28;20302;-63
2023/06/21 02:29:13;;;;;;;2.10;2.00;;;21.40;99.90;;;;;;5071162;28;20256;-62
2023/06/21 02:31:40;;;;;;;1.80;1.70;;;21.40;99.90;;;;;;5072261;28;20302;-60
2023/06/21 02:34:07;;;;;;;1.90;1.80;;;21.40;99.90;;;;;;5072980;28;20352;-61
2023/06/21 02:36:35;;;;;;;1.85;1.75;;;21.50;99.90;;;;;;5073047;28;20289;-63
2023/06/21 02:39:04;;;;;;;2.00;1.90;;;21.60;99.90;;;;;;5072379;28;20207;-63
2023/06/21 02:41:30;;;;;;;2.20;2.10;;;21.50;99.90;;;;;;5079199;28;20271;-62
2023/06/21 02:43:57;;;;;;;2.40;2.20;;;21.60;99.90;;;;;;5086071;28;20286;-63
2023/06/21 02:46:24;;;;;;;2.40;2.20;;;21.50;99.90;;;;;;5083582;28;20199;-63
2023/06/21 02:48:51;;;;;;;2.72;2.55;;;21.60;99.90;;;;;;5082211;28;20207;-64
2023/06/21 02:51:20;;;;;;;3.05;2.85;;;21.70;99.90;;;;;;5079540;28;20234;-62
2023/06/21 02:53:47;;;;;;;2.45;2.25;;;21.60;99.90;;;;;;5084021;28;20205;-63
2023/06/21 02:56:15;;;;;;;2.20;2.10;;;21.40;99.90;;;;;;5084558;28;20226;-63
2023/06/21 02:58:42;;;;;;;2.10;2.00;;;21.40;99.90;;;;;;5080869;28;20217;-64
2023/06/21 03:01:09;;;;;;;2.10;2.00;;;21.50;99.90;;;;;;5082633;28;20227;-63
2023/06/21 03:03:36;;;;;;;2.10;1.90;;;21.50;99.90;;;;;;5083357;28;20292;-62
2023/06/21 03:06:05;;;;;;;2.78;2.50;;;21.40;99.90;;;;;;5082371;28;20207;-61
2023/06/21 03:08:32;;;;;;;2.30;2.20;;;21.30;99.90;;;;;;5078710;28;20219;-62
2023/06/21 03:10:58;;;;;;;2.30;2.10;;;21.20;99.90;;;;;;5072957;28;20227;-62
2023/06/21 03:13:27;;;;;;;2.00;1.90;;;21.20;99.90;;;;;;5072167;28;20200;-65
2023/06/21 03:15:54;;;;;;;2.28;2.17;;;21.20;99.90;;;;;;5071354;28;20211;-61
2023/06/21 03:18:21;;;;;;;1.98;1.88;;;21.20;99.90;;;;;;5071515;28;20215;-63
2023/06/21 03:20:50;;;;;;;1.60;1.60;;;21.20;99.90;;;;;;5070599;28;20234;-62
2023/06/21 03:23:17;;;;;;;1.95;1.85;;;21.20;99.90;;;;;;5071239;28;20813;-62
2023/06/21 03:25:43;;;;;;;1.83;1.73;;;21.20;99.90;;;;;;5069827;28;20587;-61
2023/06/21 03:28:10;;;;;;;2.53;2.42;;;21.20;99.90;;;;;;5070943;28;20677;-61
2023/06/21 03:30:38;;;;;;;1.95;1.85;;;21.30;99.90;;;;;;5070583;28;20656;-63
2023/06/21 03:33:05;;;;;;;1.92;1.83;;;21.20;99.90;;;;;;5070876;28;20209;-63
2023/06/21 03:35:32;;;;;;;2.78;2.20;;;21.00;99.90;;;;;;5070996;28;20234;-64
2023/06/21 03:38:00;;;;;;;3.55;3.35;;;21.00;99.90;;;;;;5070715;28;20263;-63
2023/06/21 03:40:27;;;;;;;2.47;2.28;;;21.00;99.90;;;;;;5059344;28;20292;-62
2023/06/21 03:42:53;;;;;;;3.85;3.65;;;21.00;99.90;;;;;;5050485;28;20291;-62
2023/06/21 03:45:20;;;;;;;2.28;2.17;;;20.90;99.90;;;;;;5050541;28;20307;-62
2023/06/21 03:47:48;;;;;;;2.72;2.63;;;20.90;99.90;;;;;;5050829;28;20212;-62
2023/06/21 03:50:15;;;;;;;2.88;2.67;;;20.80;99.90;;;;;;5050457;28;20255;-65
2023/06/21 03:52:43;;;;;;;2.35;2.25;;;20.80;99.90;;;;;;5054316;28;20310;-61
2023/06/21 03:55:11;;;;;;;2.05;1.95;;;20.80;99.90;;;;;;5054336;28;20214;-64
2023/06/21 03:57:38;;;;;;;1.98;1.88;;;20.70;99.90;;;;;;5054406;28;20299;-63
2023/06/21 04:00:08;;;;;;;2.90;2.70;;;20.70;99.90;;;;;;5053545;28;20238;-62
2023/06/21 04:02:35;;;;;;;3.55;3.35;;;20.80;99.90;;;;;;5055724;28;20574;-62
2023/06/21 04:05:03;;;;;;;2.67;2.03;;;20.70;99.90;;;;;;5053773;28;20224;-62
2023/06/21 04:07:31;;;;;;;2.08;1.98;;;20.70;99.90;;;;;;5054173;28;20236;-64
2023/06/21 04:09:58;;;;;;;2.45;2.35;;;20.70;99.90;;;;;;5053717;28;20892;-65
2023/06/21 04:12:26;;;;;;;2.40;2.30;;;20.60;99.90;;;;;;5053633;28;20244;-64
2023/06/21 04:14:53;;;;;;;2.38;2.28;;;20.70;99.90;;;;;;5054164;28;20200;-63
2023/06/21 04:17:19;;;;;;;2.45;2.33;;;20.70;99.90;;;;;;5054293;28;20208;-61
2023/06/21 04:19:46;;;;;;;1.83;1.73;;;20.60;99.90;;;;;;5054292;28;20310;-65
2023/06/21 04:22:14;;;;;;;2.05;1.95;;;20.70;99.90;;;;;;5054862;28;20295;-57
2023/06/21 04:24:41;;;;;;;1.52;1.52;;;20.70;99.90;;;;;;5055248;28;20220;-59
2023/06/21 04:27:12;;;;;;;1.75;1.65;;;21.10;99.90;;;;;;5074228;28;20209;-58
2023/06/21 04:29:40;;;;;;;1.88;1.77;;;21.70;99.90;;;;;;5073623;28;20704;-57
2023/06/21 04:32:08;;;;;;;1.80;1.70;;;22.20;99.90;;;;;;5073515;28;20229;-58
2023/06/21 04:34:35;;;;;;;1.83;1.73;;;22.30;99.90;;;;;;5076339;28;20614;-57
2023/06/21 04:37:05;;;;;;;2.70;2.55;;;22.50;99.90;;;;;;5077401;28;20214;-58
2023/06/21 04:39:33;;;;;;;1.92;1.83;;;22.50;99.90;;;;;;5077482;28;20227;-60
2023/06/21 04:42:00;;;;;;;3.13;2.97;;;22.40;99.90;;;;;;5076689;28;20231;-59
2023/06/21 04:44:27;;;;;;;2.92;2.83;;;22.50;99.90;;;;;;5073573;28;20223;-58
2023/06/21 04:46:54;;;;;;;1.90;1.80;;;22.80;99.90;;;;;;5092231;28;20648;-59
2023/06/21 04:49:25;;;;;;;1.67;1.58;;;22.90;99.90;;;;;;5082828;28;20237;-58
2023/06/21 04:51:52;;;;;;;1.90;1.80;;;22.70;99.90;;;;;;5073024;28;20210;-58
2023/06/21 04:54:22;;;;;;;1.40;1.40;;;22.70;99.90;;;;;;5057412;28;20208;-57
2023/06/21 04:56:51;;;;;;;1.80;1.70;;;22.80;99.90;;;;;;5053401;28;20204;-59
2023/06/21 04:59:17;;;;;;;1.80;1.70;;;22.90;99.90;;;;;;5054220;28;20212;-60
2023/06/21 05:01:44;;;;;;;1.55;1.55;;;22.90;99.90;;;;;;5074590;28;20205;-59
2023/06/21 05:04:11;;;;;;;1.73;1.55;;;22.90;99.90;;;;;;5070336;28;20857;-57
2023/06/21 05:06:40;;;;;;;3.25;2.55;;;23.00;99.90;;;;;;5073955;28;20210;-59
2023/06/21 05:09:08;;;;;;;1.70;1.60;;;23.00;99.90;;;;;;5073586;28;20206;-59
2023/06/21 05:11:36;;;;;;;1.60;1.50;;;23.10;99.90;;;;;;5073356;28;20231;-59
2023/06/21 05:14:04;;;;;;;1.70;1.60;;;22.90;99.90;;;;;;5072369;28;20580;-59
2023/06/21 05:16:31;;;;;;;1.52;1.52;;;22.60;99.90;;;;;;5072938;28;20239;-62
2023/06/21 05:18:58;;;;;;;3.15;3.05;;;22.60;99.90;;;;;;5072703;28;20662;-65
2023/06/21 05:21:25;;;;;;;1.63;1.52;;;22.30;99.90;;;;;;5072270;28;20219;-63
2023/06/21 05:23:51;;;;;;;1.70;1.60;;;22.10;99.90;;;;;;5072422;28;20227;-62
2023/06/21 05:26:18;;;;;;;1.42;1.42;;;21.90;99.90;;;;;;5073654;28;20199;-63
2023/06/21 05:28:45;;;;;;;1.85;1.80;;;21.90;99.90;;;;;;5074348;28;20239;-64
2023/06/21 05:31:13;;;;;;;1.90;1.80;;;21.90;99.90;;;;;;5076326;28;20231;-62
2023/06/21 05:33:40;;;;;;;1.80;1.70;;;21.80;99.90;;;;;;5076027;28;20203;-62
2023/06/21 05:36:08;;;;;;;1.80;1.70;;;21.70;99.90;;;;;;5074486;28;20207;-63
2023/06/21 05:38:35;;;;;;;1.80;1.70;;;21.70;99.90;;;;;;5078206;28;20231;-64
2023/06/21 05:41:02;;;;;;;2.58;2.47;;;21.60;99.90;;;;;;5072374;28;20226;-63
2023/06/21 05:43:29;;;;;;;1.77;1.67;;;21.60;99.90;;;;;;5068847;28;20230;-65
2023/06/21 05:45:56;;;;;;;1.67;1.63;;;21.60;99.90;;;;;;5075793;28;20206;-63
2023/06/21 05:48:24;;;;;;;1.77;1.67;;;21.60;99.90;;;;;;5064477;28;20231;-66
2023/06/21 05:50:51;;;;;;;2.00;1.90;;;21.70;99.90;;;;;;5061698;28;20303;-65
2023/06/21 05:53:18;;;;;;;2.00;1.90;;;21.60;99.90;;;;;;5061847;28;20195;-62
2023/06/21 05:55:46;;;;;;;2.78;2.67;;;21.60;99.90;;;;;;5063110;28;20263;-63
2023/06/21 05:58:13;;;;;;;3.67;3.47;;;21.60;99.90;;;;;;5061862;28;20208;-63
2023/06/21 06:00:39;;;;;;;2.25;2.15;;;21.60;99.90;;;;;;5060529;28;20227;-64
2023/06/21 06:03:08;;;;;;;1.80;1.70;;;21.70;99.90;;;;;;5059852;28;20283;-63
2023/06/21 06:05:36;;;;;;;3.38;3.20;;;21.80;99.90;;;;;;5052207;28;20224;-64
2023/06/21 06:08:03;;;;;;;1.60;1.50;;;21.80;99.90;;;;;;5070582;28;20598;-64
2023/06/21 06:10:30;;;;;;;2.15;2.05;;;21.80;99.90;;;;;;5052957;28;20247;-63
2023/06/21 06:12:57;;;;;;;2.88;2.78;;;21.80;99.90;;;;;;5050434;28;20208;-64
2023/06/21 06:15:24;;;;;;;1.77;1.67;;;21.70;99.90;;;;;;5056533;28;20307;-66
2023/06/21 06:17:51;;;;;;;1.52;1.50;;;21.70;99.90;;;;;;5061819;28;20199;-65
2023/06/21 06:20:18;;;;;;;2.13;2.03;;;21.80;99.90;;;;;;5069499;28;20322;-68
2023/06/21 06:22:47;;;;;;;2.25;2.15;;;21.80;99.90;;;;;;5072658;28;20257;-64
2023/06/21 06:25:14;;;;;;;2.20;2.10;;;21.90;99.90;;;;;;5068411;28;20226;-63
2023/06/21 06:27:41;;;;;;;1.88;1.77;;;22.00;99.90;;;;;;5069181;28;20261;-64
2023/06/21 06:30:09;;;;;;;1.85;1.75;;;22.10;99.90;;;;;;5070571;28;20334;-65
2023/06/21 06:32:36;;;;;;;1.50;1.40;;;22.40;99.90;;;;;;5057993;28;20195;-64
2023/06/21 06:35:03;;;;;;;2.58;2.47;;;22.60;99.90;;;;;;5059065;28;20730;-66
2023/06/21 06:37:30;;;;;;;1.80;1.70;;;22.60;99.90;;;;;;5051291;28;20287;-65
2023/06/21 06:39:58;;;;;;;1.65;1.55;;;22.60;99.90;;;;;;5058023;28;20648;-63
2023/06/21 06:42:25;;;;;;;1.63;1.60;;;22.60;99.90;;;;;;5069040;28;20203;-64
2023/06/21 06:44:53;;;;;;;1.70;1.60;;;22.60;99.90;;;;;;5070387;28;20417;-64
2023/06/21 06:47:20;;;;;;;1.60;1.50;;;22.70;99.90;;;;;;5071549;28;20210;-63
2023/06/21 06:49:46;;;;;;;1.45;1.42;;;22.70;99.90;;;;;;5071794;28;20223;-65
2023/06/21 06:52:13;;;;;;;1.80;1.70;;;22.70;99.90;;;;;;5082894;28;20266;-64
2023/06/21 06:54:40;;;;;;;1.73;1.63;;;22.60;99.90;;;;;;5080836;28;20270;-63
2023/06/21 06:57:08;;;;;;;1.83;1.73;;;22.70;99.90;;;;;;5074614;28;20282;-66
2023/06/21 07:02:03;;;;;;;1.70;1.60;;;22.90;99.90;;;;;;5025310;28;20209;-63
2023/06/21 07:04:30;;;;;;;1.40;1.40;;;23.10;99.90;;;;;;5031898;28;20224;-64
2023/06/21 07:07:01;;;;;;;1.40;1.40;;;23.20;99.90;;;;;;5037610;28;20271;-64
2023/06/21 07:09:27;;;;;;;1.30;1.30;;;23.20;99.90;;;;;;5037034;28;20303;-64
2023/06/21 07:11:59;;;;;;;1.60;1.50;;;23.30;99.90;;;;;;5032782;28;20208;-64
2023/06/21 07:14:27;;;;;;;1.50;1.40;;;23.30;99.90;;;;;;5031576;28;20303;-64
2023/06/21 07:16:54;;;;;;;1.58;1.48;;;23.30;99.90;;;;;;5031866;28;20209;-63
2023/06/21 07:19:20;;;;;;;1.42;1.42;;;23.40;99.90;;;;;;5031375;28;20583;-63
2023/06/21 07:21:47;;;;;;;1.60;1.42;;;23.40;99.90;;;;;;5031111;28;20224;-64
2023/06/21 07:24:14;;;;;;;1.63;1.52;;;23.50;99.90;;;;;;5031213;28;20332;-65
2023/06/21 07:26:41;;;;;;;1.20;1.20;;;23.50;99.90;;;;;;5033724;28;20214;-64
2023/06/21 07:29:08;;;;;;;1.50;1.40;;;23.60;99.90;;;;;;5037493;28;20213;-63
2023/06/21 07:31:36;;;;;;;1.60;1.50;;;23.70;99.90;;;;;;5037101;28;20259;-64
2023/06/21 07:34:03;;;;;;;1.60;1.50;;;23.80;99.90;;;;;;5035357;28;20207;-64
2023/06/21 07:36:30;;;;;;;1.30;1.30;;;23.70;99.90;;;;;;5036954;28;20208;-64
2023/06/21 07:38:56;;;;;;;1.20;1.20;;;23.60;99.90;;;;;;5038258;28;20211;-63
2023/06/21 07:41:23;;;;;;;1.38;1.38;;;23.50;99.90;;;;;;5035293;28;20225;-64
2023/06/21 07:43:50;;;;;;;1.50;1.40;;;23.40;99.90;;;;;;5035805;28;20223;-63
2023/06/21 07:46:17;;;;;;;1.40;1.40;;;23.40;99.90;;;;;;5036085;28;20226;-64
2023/06/21 07:48:45;;;;;;;1.73;1.60;;;23.30;99.90;;;;;;5035922;28;20211;-63
2023/06/21 07:51:12;;;;;;;1.60;1.50;;;23.30;99.90;;;;;;5034865;28;20228;-63
2023/06/21 07:53:39;;;;;;;1.88;1.70;;;23.30;99.90;;;;;;5035188;28;20262;-64
2023/06/21 07:56:06;;;;;;;1.40;1.40;;;23.20;99.90;;;;;;5035635;28;20205;-64
2023/06/21 07:58:33;;;;;;;1.80;1.70;;;23.20;99.90;;;;;;5035163;28;20204;-64
2023/06/21 08:00:59;;;;;;;1.50;1.40;;;23.20;99.90;;;;;;5034199;28;20242;-63
2023/06/21 08:03:26;;;;;;;1.60;1.50;;;23.20;99.90;;;;;;5035331;28;20210;-64
2023/06/21 08:05:54;;;;;;;1.70;1.60;;;23.20;99.90;;;;;;5035232;28;20220;-64
2023/06/21 08:08:21;;;;;;;1.70;1.60;;;23.20;99.90;;;;;;5035624;28;20568;-64
2023/06/21 08:10:48;;;;;;;1.75;1.65;;;23.20;99.90;;;;;;5035199;28;20618;-63
2023/06/21 08:13:18;;;;;;;2.30;2.20;;;23.20;99.90;;;;;;5035231;28;20211;-64
2023/06/21 08:15:45;;;;;;;2.63;2.53;;;23.20;99.90;;;;;;5035186;28;20197;-64
2023/06/21 08:18:13;;;;;;;1.80;1.70;;;23.00;99.90;;;;;;5034483;28;20204;-64
2023/06/21 08:20:40;;;;;;;1.60;1.50;;;23.00;99.90;;;;;;5034392;28;20235;-64
2023/06/21 08:23:09;;;;;;;1.80;1.70;;;22.90;99.90;;;;;;5034609;28;20204;-64
2023/06/21 08:25:36;;;;;;;1.63;1.52;;;23.00;99.90;;;;;;5034615;28;20813;-64
2023/06/21 08:28:03;;;;;;;1.77;1.67;;;23.10;99.90;;;;;;5034963;28;20729;-64
2023/06/21 08:30:30;;;;;;;1.60;1.50;;;23.20;99.90;;;;;;5034041;28;20282;-64
2023/06/21 08:32:57;;;;;;;1.30;1.30;;;23.20;99.90;;;;;;5034463;28;20212;-63
2023/06/21 08:35:24;;;;;;;1.55;1.45;;;23.20;99.90;;;;;;5034355;28;20197;-62
2023/06/21 08:37:57;;;;;;;1.67;1.60;;;23.30;99.90;;;;;;5033600;28;20211;-63
2023/06/21 08:40:27;;;;;;;1.58;1.48;;;23.30;99.90;;;;;;5034230;28;20228;-63
2023/06/21 08:42:54;;;;;;;1.73;1.63;;;23.20;99.90;;;;;;5033836;28;20209;-63
2023/06/21 08:45:22;;;;;;;1.40;1.40;;;23.20;99.90;;;;;;5033954;28;20224;-63
2023/06/21 08:47:51;;;;;;;1.80;1.70;;;23.20;99.90;;;;;;5034813;28;20205;-64
2023/06/21 08:50:19;;;;;;;1.40;1.40;;;23.20;99.90;;;;;;5037185;28;20241;-64
2023/06/21 08:52:48;;;;;;;1.30;1.30;;;23.10;99.90;;;;;;5033875;28;20228;-64
2023/06/21 08:55:16;;;;;;;1.30;1.30;;;23.10;99.90;;;;;;5034233;28;20284;-63
2023/06/21 08:57:50;;;;;;;1.20;1.20;;;23.10;99.90;;;;;;5033850;28;20286;-63
2023/06/21 09:00:21;;;;;;;1.30;1.30;;;23.10;99.90;;;;;;5033623;28;20235;-65
2023/06/21 09:02:54;;;;;;;1.33;1.30;;;23.10;99.90;;;;;;5033496;28;20205;-64
2023/06/21 09:05:27;;;;;;;1.30;1.30;;;23.10;99.90;;;;;;5036394;28;20220;-64
2023/06/21 09:07:55;;;;;;;1.52;1.42;;;23.10;99.90;;;;;;5039858;28;20674;-64
2023/06/21 09:10:22;;;;;;;1.20;1.20;;;23.10;99.90;;;;;;5033174;28;20319;-63
2023/06/21 09:12:52;;;;;;;1.45;1.38;;;23.10;99.90;;;;;;5033596;28;20212;-64
2023/06/21 09:15:19;;;;;;;1.50;1.40;;;23.10;99.90;;;;;;5033679;28;20644;-64
2023/06/21 09:17:47;;;;;;;1.45;1.35;;;23.20;99.90;;;;;;5033295;28;20684;-64
2023/06/21 09:20:15;;;;;;;1.45;1.35;;;23.20;99.90;;;;;;5033556;28;20235;-64
2023/06/21 09:22:43;;;;;;;1.60;1.50;;;23.30;99.90;;;;;;5037284;28;20258;-64
2023/06/21 09:25:10;;;;;;;1.40;1.40;;;23.20;99.90;;;;;;5033804;28;20231;-64
2023/06/21 09:27:37;;;;;;;1.15;1.15;;;23.30;99.90;;;;;;5033126;28;20205;-65
2023/06/21 09:30:07;;;;;;;1.33;1.30;;;23.50;99.90;;;;;;5032724;28;20239;-64
2023/06/21 09:32:34;;;;;;;1.35;1.30;;;23.70;99.90;;;;;;5032774;28;20205;-63
2023/06/21 09:35:01;;;;;;;1.30;1.30;;;23.90;99.90;;;;;;5033553;28;20205;-63
2023/06/21 09:37:32;;;;;;;1.30;1.30;;;24.00;99.90;;;;;;5036390;28;20208;-63
2023/06/21 09:39:59;;;;;;;1.38;1.30;;;24.20;99.90;;;;;;5037646;28;20290;-64
2023/06/21 09:42:26;;;;;;;1.35;1.35;;;24.30;99.90;;;;;;5034557;28;20208;-64
2023/06/21 09:44:53;;;;;;;1.55;1.48;;;24.30;99.90;;;;;;5033253;28;20224;-63
2023/06/21 09:47:22;;;;;;;1.40;1.40;;;24.40;99.90;;;;;;5033017;28;20205;-63
2023/06/21 09:49:49;;;;;;;1.50;1.40;;;24.60;99.90;;;;;;5032193;28;20729;-64
2023/06/21 09:52:18;;;;;;;1.27;1.27;;;24.60;99.90;;;;;;5032667;28;20208;-64
2023/06/21 09:54:45;;;;;;;1.48;1.38;;;24.60;99.90;;;;;;5032758;28;20208;-64
2023/06/21 09:57:12;;;;;;;1.60;1.50;;;24.70;99.90;;;;;;5034298;28;20212;-64
2023/06/21 09:59:39;;;;;;;1.80;1.70;;;24.90;99.90;;;;;;5032250;28;20201;-64
2023/06/21 10:02:07;;;;;;;1.50;1.50;;;25.10;99.90;;;;;;5032530;28;20230;-64
2023/06/21 10:04:41;;;;;;;1.40;1.35;;;25.10;99.90;;;;;;5032278;28;20679;-63
2023/06/21 10:07:11;;;;;;;1.65;1.55;;;25.30;99.90;;;;;;5032253;28;20701;-64
2023/06/21 10:09:38;;;;;;;1.45;1.40;;;25.50;99.90;;;;;;5031993;28;20205;-64
2023/06/21 10:12:06;;;;;;;1.42;1.40;;;25.70;99.90;;;;;;5032082;28;20212;-64
2023/06/21 10:14:33;;;;;;;1.60;1.50;;;25.80;99.90;;;;;;5032341;28;20209;-63
2023/06/21 10:17:01;;;;;;;1.75;1.65;;;25.90;99.90;;;;;;5032332;28;20232;-63
2023/06/21 10:19:30;;;;;;;1.42;1.40;;;26.20;99.90;;;;;;5032109;28;20215;-64
2023/06/21 10:22:04;;;;;;;1.15;1.15;;;26.50;99.90;;;;;;5032411;28;20584;-64
2023/06/21 10:24:38;;;;;;;1.65;1.55;;;26.70;99.90;;;;;;5033340;28;20262;-63
2023/06/21 10:27:06;;;;;;;1.30;1.30;;;26.70;99.90;;;;;;5051512;28;20209;-64
2023/06/21 10:29:34;;;;;;;1.30;1.30;;;26.80;99.90;;;;;;5047115;28;20582;-64
2023/06/21 10:32:02;;;;;;;1.55;1.40;;;27.00;99.90;;;;;;5048470;28;20276;-65
2023/06/21 10:34:41;;;;;;;1.50;1.50;;;27.00;99.90;;;;;;5039973;28;20291;-65
2023/06/21 10:37:20;;;;;;;1.50;1.50;;;26.80;99.90;;;;;;5037772;28;20295;-65
2023/06/21 10:39:53;;;;;;;1.80;1.70;;;26.50;99.90;;;;;;5035835;28;20204;-64
2023/06/21 10:42:21;;;;;;;1.73;1.65;;;26.30;99.90;;;;;;5032661;28;20291;-64
2023/06/21 10:44:49;;;;;;;1.77;1.67;;;26.30;99.90;;;;;;5032268;28;20836;-63
2023/06/21 10:47:17;;;;;;;1.60;1.60;;;26.60;99.90;;;;;;5033584;28;20275;-64
2023/06/21 10:49:44;;;;;;;1.85;1.73;;;26.90;99.90;;;;;;5032776;28;20211;-64
2023/06/21 10:52:14;;;;;;;1.70;1.60;;;27.00;99.90;;;;;;5032595;28;20269;-64
2023/06/21 10:54:41;;;;;;;1.50;1.50;;;27.10;99.90;;;;;;5032400;28;20219;-64
2023/06/21 10:57:09;;;;;;;1.60;1.60;;;27.30;99.90;;;;;;5032157;28;20211;-63
2023/06/21 10:59:36;;;;;;;1.80;1.70;;;27.00;99.90;;;;;;5032387;28;20504;-63
2023/06/21 11:02:04;;;;;;;1.70;1.60;;;27.00;99.90;;;;;;5032812;28;20211;-64
2023/06/21 11:04:31;;;;;;;6.53;6.22;;;27.20;99.90;;;;;;5034011;28;20215;-65
2023/06/21 11:06:59;;;;;;;2.47;2.38;;;27.40;99.90;;;;;;5032880;28;20232;-63
2023/06/21 11:09:27;;;;;;;1.80;1.70;;;27.50;99.90;;;;;;5032349;28;20231;-64
2023/06/21 11:11:54;;;;;;;2.05;1.95;;;27.60;99.90;;;;;;5032607;28;20205;-64
2023/06/21 11:14:23;;;;;;;1.80;1.70;;;27.80;99.90;;;;;;5032348;28;20622;-64
2023/06/21 11:17:05;;;;;;;1.70;1.70;;;27.80;99.90;;;;;;5031847;28;20211;-63
2023/06/21 11:19:32;;;;;;;1.80;1.70;;;27.80;99.90;;;;;;5031521;28;20204;-64
2023/06/21 11:21:58;;;;;;;1.60;1.50;;;28.00;99.90;;;;;;5032494;28;20210;-64
2023/06/21 11:24:30;;;;;;;1.88;1.77;;;28.00;99.90;;;;;;5032505;28;20551;-63
2023/06/21 11:27:02;;;;;;;1.50;1.50;;;28.10;99.90;;;;;;5032347;28;20291;-65
2023/06/21 11:29:41;;;;;;;1.60;1.50;;;28.10;99.90;;;;;;5031738;28;20209;-63
2023/06/21 11:32:10;;;;;;;1.55;1.45;;;28.30;99.90;;;;;;5031778;28;20204;-65
2023/06/21 11:34:37;;;;;;;1.60;1.50;;;28.40;99.90;;;;;;5032118;28;20556;-63
2023/06/21 11:37:32;;;;;;;1.38;1.38;;;28.50;99.90;;;;;;5031899;28;20207;-63
2023/06/21 11:40:01;;;;;;;1.75;1.65;;;28.70;99.90;;;;;;4984827;28;20283;-64
2023/06/21 11:42:32;;;;;;;1.77;1.67;;;28.60;99.90;;;;;;5031552;28;20212;-63
2023/06/21 11:45:17;;;;;;;4.57;4.38;;;28.50;99.90;;;;;;5034239;28;20208;-63
2023/06/21 11:47:57;;;;;;;1.70;1.60;;;28.20;99.90;;;;;;5032401;28;20207;-64
2023/06/21 11:50:32;;;;;;;1.45;1.45;;;28.30;99.90;;;;;;5030952;28;20247;-64
2023/06/21 11:53:20;;;;;;;1.33;1.33;;;28.60;99.90;;;;;;5030771;28;20211;-64
2023/06/21 11:55:49;;;;;;;2.50;2.40;;;28.90;99.90;;;;;;5030803;28;20247;-65
2023/06/21 11:58:16;;;;;;;1.50;1.50;;;29.10;99.90;;;;;;5031388;28;20211;-64
2023/06/21 12:00:44;;;;;;;1.55;1.52;;;29.00;99.90;;;;;;5030776;28;20232;-65
2023/06/21 12:03:11;;;;;;;1.67;1.60;;;28.80;99.90;;;;;;5031945;28;20235;-64
2023/06/21 12:05:49;;;;;;;1.80;1.70;;;28.40;99.90;;;;;;5032242;28;20230;-64
2023/06/21 12:08:16;;;;;;;1.75;1.65;;;28.30;99.90;;;;;;5031170;28;20736;-65
2023/06/21 12:10:43;;;;;;;1.42;1.40;;;28.10;99.90;;;;;;5030690;28;20221;-63
2023/06/21 12:13:14;;;;;;;1.50;1.50;;;28.00;99.90;;;;;;5035210;28;20240;-64
2023/06/21 12:15:47;;;;;;;1.60;1.60;;;28.10;99.90;;;;;;5034893;28;20259;-65
2023/06/21 12:18:14;;;;;;;10.27;9.88;;;28.20;99.90;;;;;;5034941;28;20200;-64
2023/06/21 12:20:41;;;;;;;2.35;2.25;;;28.10;99.90;;;;;;5033276;28;20251;-63
2023/06/21 12:23:08;;;;;;;2.45;2.25;;;27.80;99.90;;;;;;5033297;28;20200;-65
2023/06/21 12:25:43;;;;;;;1.67;1.60;;;28.00;99.90;;;;;;5033158;28;20212;-64
2023/06/21 12:28:11;;;;;;;2.00;1.90;;;28.30;99.90;;;;;;5032881;28;20775;-64
2023/06/21 12:30:48;;;;;;;1.90;1.80;;;28.30;99.90;;;;;;5032850;28;20227;-63
2023/06/21 12:33:15;;;;;;;1.55;1.55;;;28.50;99.90;;;;;;5033078;28;20211;-64
2023/06/21 12:35:43;;;;;;;2.67;2.58;;;28.80;99.90;;;;;;5033258;28;20729;-66
2023/06/21 12:38:12;;;;;;;2.22;2.13;;;28.50;99.90;;;;;;5033910;28;20209;-64
2023/06/21 12:40:51;;;;;;;1.60;1.52;;;28.50;99.90;;;;;;5033997;28;20235;-63
2023/06/21 12:43:37;;;;;;;1.55;1.55;;;28.40;99.90;;;;;;5034243;28;20204;-64
2023/06/21 12:46:07;;;;;;;2.78;2.58;;;28.40;99.90;;;;;;5036144;28;20233;-63
2023/06/21 12:48:35;;;;;;;2.00;1.90;;;28.70;99.90;;;;;;5035174;28;20709;-64
2023/06/21 12:51:03;;;;;;;1.80;1.70;;;28.90;99.90;;;;;;5033640;28;20311;-62
2023/06/21 12:53:31;;;;;;;2.22;2.13;;;28.90;99.90;;;;;;5033481;28;20209;-65
2023/06/21 12:56:04;;;;;;;1.95;1.85;;;29.10;99.90;;;;;;5033849;28;20208;-64
2023/06/21 12:58:31;;;;;;;1.60;1.50;;;29.30;99.90;;;;;;5033536;28;20241;-64